Time;durP1;ratioP1;P1;durP2;ratioP2;P2;SDS_P1;SDS_P2;PMS_P1;PMS_P2;Temp;Humidity;BMP_temperature;BMP_pressure;BME280_temperature;BME280_humidity;BME280_pressure;Samples;Min_cycle;Max_cycle;Signal;HPM_P1;HPM_P2
2023/02/24 00:02:51;;;;;;;0.43;0.43;;;;;;;;;;5027660;28;20195;-74
2023/02/24 00:05:17;;;;;;;0.40;0.40;;;7.60;93.00;;;;;;5029143;28;20851;-74
2023/02/24 00:07:43;;;;;;;0.37;0.33;;;;;;;;;;5027415;28;20220;-74
2023/02/24 00:10:10;;;;;;;3.40;0.70;;;7.60;92.80;;;;;;5033527;28;20222;-74
2023/02/24 00:12:36;;;;;;;1.90;0.57;;;7.60;92.90;;;;;;5033521;28;20241;-74
2023/02/24 00:15:02;;;;;;;0.67;0.67;;;7.50;93.00;;;;;;5031543;28;20196;-74
2023/02/24 00:17:29;;;;;;;0.77;0.50;;;;;;;;;;5028545;28;20212;-74
2023/02/24 00:19:55;;;;;;;0.50;0.33;;;7.50;92.70;;;;;;5031888;28;20276;-74
2023/02/24 00:22:21;;;;;;;0.40;0.40;;;;;;;;;;5029615;28;20184;-74
2023/02/24 00:24:47;;;;;;;2.13;0.83;;;;;;;;;;5030573;28;20707;-74
2023/02/24 00:27:13;;;;;;;0.20;0.20;;;;;;;;;;5027688;28;20204;-73
2023/02/24 00:29:40;;;;;;;0.93;0.40;;;7.50;92.70;;;;;;5030009;28;20184;-74
2023/02/24 00:32:11;;;;;;;1.00;0.50;;;7.50;92.80;;;;;;5028848;28;20672;-73
2023/02/24 00:34:37;;;;;;;0.90;0.43;;;7.50;93.10;;;;;;5029996;28;20295;-73
2023/02/24 00:37:05;;;;;;;0.50;0.43;;;7.50;92.80;;;;;;5031683;28;20189;-73
2023/02/24 00:39:34;;;;;;;0.60;0.60;;;7.50;92.60;;;;;;5034881;28;20192;-73
2023/02/24 00:42:05;;;;;;;0.63;0.63;;;7.50;92.70;;;;;;5050075;28;20596;-73
2023/02/24 00:44:36;;;;;;;1.13;0.50;;;7.50;92.60;;;;;;5047702;28;20249;-73
2023/02/24 00:47:05;;;;;;;1.47;0.47;;;7.50;92.70;;;;;;5047298;28;20557;-73
2023/02/24 00:49:31;;;;;;;0.43;0.30;;;7.50;92.60;;;;;;5041681;28;20247;-74
2023/02/24 00:51:58;;;;;;;0.60;0.60;;;7.50;92.80;;;;;;5034344;28;20216;-73
2023/02/24 00:54:27;;;;;;;0.43;0.40;;;7.50;92.50;;;;;;5040813;28;20175;-73
2023/02/24 00:56:53;;;;;;;1.57;0.80;;;7.60;92.20;;;;;;5045091;28;20222;-73
2023/02/24 00:59:21;;;;;;;0.47;0.47;;;;;;;;;;5049218;28;20191;-73
2023/02/24 01:01:49;;;;;;;0.23;0.23;;;7.60;92.20;;;;;;5054072;28;20258;-73
2023/02/24 01:04:16;;;;;;;0.40;0.40;;;7.60;92.30;;;;;;5048990;28;20567;-73
2023/02/24 01:06:44;;;;;;;0.47;0.47;;;7.50;92.50;;;;;;5046386;28;20198;-73
2023/02/24 01:09:14;;;;;;;0.70;0.70;;;7.50;92.50;;;;;;5052073;28;20184;-73
2023/02/24 01:14:28;;;;;;;1.37;0.63;;;7.60;92.10;;;;;;5047690;28;20247;-73
2023/02/24 01:16:54;;;;;;;0.93;0.90;;;7.60;91.90;;;;;;5051292;28;20180;-73
2023/02/24 01:19:23;;;;;;;0.80;0.80;;;7.60;92.00;;;;;;5049266;28;20195;-73
2023/02/24 01:21:53;;;;;;;0.60;0.30;;;7.60;92.00;;;;;;5046137;28;20183;-73
2023/02/24 01:24:20;;;;;;;0.43;0.43;;;7.60;91.90;;;;;;5051389;28;20645;-74
2023/02/24 01:26:46;;;;;;;1.07;0.50;;;;;;;;;;5046874;28;20254;-73
2023/02/24 01:29:13;;;;;;;4.03;0.60;;;7.50;91.70;;;;;;5048777;28;20657;-73
2023/02/24 01:31:41;;;;;;;1.50;0.40;;;7.50;91.80;;;;;;5043735;28;20626;-73
2023/02/24 01:34:09;;;;;;;0.50;0.30;;;7.50;92.10;;;;;;5048571;28;20274;-73
2023/02/24 01:36:36;;;;;;;0.47;0.30;;;7.40;91.90;;;;;;5042521;28;20203;-74
2023/02/24 01:39:09;;;;;;;0.60;0.50;;;7.40;91.90;;;;;;5051264;28;20190;-74
2023/02/24 01:41:41;;;;;;;0.30;0.30;;;7.50;91.80;;;;;;5048169;28;20743;-73
2023/02/24 01:44:13;;;;;;;0.87;0.67;;;7.40;91.90;;;;;;5053539;28;20203;-73
2023/02/24 01:46:43;;;;;;;0.23;0.23;;;7.40;91.90;;;;;;5046817;28;20183;-73
2023/02/24 01:49:10;;;;;;;0.30;0.30;;;;;;;;;;5051009;28;20206;-74
2023/02/24 01:51:41;;;;;;;0.53;0.53;;;7.40;92.20;;;;;;5049748;28;20184;-73
2023/02/24 01:54:11;;;;;;;0.43;0.43;;;7.30;92.20;;;;;;5036099;28;21759;-73
2023/02/24 01:56:38;;;;;;;0.47;0.47;;;7.30;92.10;;;;;;5035462;28;20574;-73
2023/02/24 01:59:04;;;;;;;1.70;0.30;;;7.40;91.70;;;;;;5047647;28;20210;-73
2023/02/24 02:01:38;;;;;;;0.50;0.50;;;7.30;91.90;;;;;;5044219;28;20198;-73
2023/02/24 02:04:15;;;;;;;0.20;0.20;;;7.30;92.00;;;;;;5032144;28;20237;-73
2023/02/24 02:06:41;;;;;;;0.77;0.60;;;;;;;;;;5032259;28;20202;-73
2023/02/24 02:09:08;;;;;;;0.30;0.30;;;7.20;92.10;;;;;;5032173;28;20179;-73
2023/02/24 02:11:34;;;;;;;1.10;0.33;;;7.20;92.20;;;;;;5038836;28;20259;-73
2023/02/24 02:14:00;;;;;;;1.07;0.70;;;7.10;92.20;;;;;;5045273;28;20661;-73
2023/02/24 02:16:48;;;;;;;1.17;0.50;;;7.10;92.00;;;;;;5053381;28;20942;-73
2023/02/24 02:19:58;;;;;;;0.37;0.37;;;7.00;92.20;;;;;;5043075;28;20183;-73
2023/02/24 02:22:47;;;;;;;0.53;0.40;;;7.00;92.50;;;;;;5045514;28;20186;-73
2023/02/24 02:25:28;;;;;;;1.20;0.63;;;6.90;92.70;;;;;;5046181;28;20244;-73
2023/02/24 02:28:15;;;;;;;0.27;0.27;;;6.90;92.80;;;;;;5045186;28;20183;-73
2023/02/24 02:31:07;;;;;;;0.60;0.60;;;6.90;92.70;;;;;;5054497;28;20179;-73
2023/02/24 02:34:07;;;;;;;0.57;0.57;;;6.90;92.70;;;;;;5051309;28;20306;-73
2023/02/24 02:36:51;;;;;;;0.33;0.20;;;6.90;92.80;;;;;;5048618;28;20180;-73
2023/02/24 02:39:42;;;;;;;1.17;0.70;;;6.90;92.80;;;;;;5045847;28;21012;-73
2023/02/24 02:42:33;;;;;;;0.80;0.70;;;6.80;92.80;;;;;;5051839;28;20196;-75
2023/02/24 02:45:12;;;;;;;0.60;0.60;;;6.80;92.70;;;;;;5045717;28;20193;-75
2023/02/24 02:47:40;;;;;;;0.60;0.30;;;;;;;;;;5048004;28;20192;-74
2023/02/24 02:50:35;;;;;;;0.23;0.20;;;6.80;92.70;;;;;;5048731;28;20676;-74
2023/02/24 02:53:08;;;;;;;1.30;0.43;;;6.90;92.60;;;;;;5044433;28;20775;-74
2023/02/24 02:55:39;;;;;;;5.60;0.67;;;6.90;92.50;;;;;;5048860;28;20627;-72
2023/02/24 02:58:10;;;;;;;0.40;0.30;;;6.90;92.50;;;;;;5045089;28;20198;-73
2023/02/24 03:00:42;;;;;;;0.57;0.57;;;6.90;92.20;;;;;;5046131;28;20186;-74
2023/02/24 03:03:13;;;;;;;0.60;0.50;;;6.90;92.30;;;;;;5052893;28;20180;-74
2023/02/24 03:05:55;;;;;;;3.03;0.40;;;6.90;92.30;;;;;;5050087;28;20187;-74
2023/02/24 03:08:24;;;;;;;0.20;0.20;;;6.90;92.30;;;;;;5050762;28;20202;-74
2023/02/24 03:10:52;;;;;;;1.60;0.80;;;6.90;92.40;;;;;;5049862;28;20176;-73
2023/02/24 03:13:29;;;;;;;0.27;0.27;;;6.90;92.30;;;;;;5054367;28;20215;-74
2023/02/24 03:15:58;;;;;;;0.57;0.57;;;6.80;92.30;;;;;;5053225;28;20206;-74
2023/02/24 03:18:38;;;;;;;0.10;0.10;;;6.80;92.40;;;;;;5048868;28;20183;-74
2023/02/24 03:21:06;;;;;;;0.73;0.67;;;;;;;;;;5050647;28;20187;-75
2023/02/24 03:23:36;;;;;;;1.03;0.20;;;6.90;92.30;;;;;;5051137;28;20175;-74
2023/02/24 03:26:20;;;;;;;0.57;0.57;;;6.90;92.00;;;;;;5047904;28;20183;-73
2023/02/24 03:29:22;;;;;;;0.30;0.30;;;6.90;92.30;;;;;;5050010;28;20181;-74
2023/02/24 03:32:22;;;;;;;1.13;0.40;;;6.90;92.30;;;;;;5003113;28;20189;-73
2023/02/24 03:34:56;;;;;;;0.40;0.40;;;6.90;92.20;;;;;;4945844;28;20201;-74
2023/02/24 03:37:26;;;;;;;0.43;0.40;;;7.00;92.00;;;;;;4945293;28;20257;-73
2023/02/24 03:39:58;;;;;;;0.50;0.50;;;7.00;92.00;;;;;;4944814;28;20700;-74
2023/02/24 03:42:29;;;;;;;0.20;0.20;;;7.10;91.70;;;;;;4945188;28;20289;-73
2023/02/24 03:44:57;;;;;;;1.87;0.80;;;7.10;91.60;;;;;;4944677;28;20195;-73
2023/02/24 03:47:24;;;;;;;1.33;0.67;;;7.10;91.50;;;;;;4944355;28;20183;-74
2023/02/24 03:49:50;;;;;;;0.67;0.43;;;7.10;91.30;;;;;;4944063;28;20668;-73
2023/02/24 03:52:46;;;;;;;0.50;0.40;;;7.10;91.30;;;;;;4943583;28;20226;-73
2023/02/24 03:55:18;;;;;;;0.87;0.50;;;;;;;;;;4942918;28;20192;-74
2023/02/24 03:58:03;;;;;;;1.80;1.00;;;7.20;91.00;;;;;;4943341;28;20196;-73
2023/02/24 04:00:54;;;;;;;3.37;0.80;;;7.20;90.90;;;;;;4942821;28;20751;-73
2023/02/24 04:03:41;;;;;;;0.60;0.60;;;7.20;90.90;;;;;;4942367;28;20195;-73
2023/02/24 04:06:25;;;;;;;0.57;0.33;;;7.20;90.80;;;;;;4943641;28;20262;-74
2023/02/24 04:08:51;;;;;;;0.50;0.50;;;;;;;;;;4980999;28;20295;-74
2023/02/24 04:11:44;;;;;;;0.63;0.40;;;7.20;90.50;;;;;;5041825;28;20234;-73
2023/02/24 04:14:17;;;;;;;0.30;0.30;;;7.30;90.50;;;;;;5051078;28;20203;-73
2023/02/24 04:16:52;;;;;;;0.20;0.20;;;7.30;90.40;;;;;;5051686;28;20184;-73
2023/02/24 04:19:23;;;;;;;0.53;0.50;;;7.30;90.60;;;;;;5049290;28;20210;-74
2023/02/24 04:21:49;;;;;;;0.60;0.60;;;7.30;90.60;;;;;;5049608;28;20192;-73
2023/02/24 04:24:20;;;;;;;0.50;0.50;;;7.30;90.40;;;;;;5050382;28;20674;-73
2023/02/24 04:26:47;;;;;;;0.20;0.20;;;7.30;90.40;;;;;;5050499;28;20195;-73
2023/02/24 04:29:22;;;;;;;0.30;0.23;;;7.30;90.30;;;;;;5051379;28;20182;-73
2023/02/24 04:32:03;;;;;;;0.40;0.23;;;7.40;90.40;;;;;;5047036;28;20179;-73
2023/02/24 04:34:31;;;;;;;0.13;0.13;;;7.40;90.20;;;;;;5045609;28;21684;-73
2023/02/24 04:36:58;;;;;;;3.80;0.40;;;7.40;90.20;;;;;;5047591;28;20966;-73
2023/02/24 04:39:24;;;;;;;1.33;0.30;;;7.40;90.00;;;;;;5049785;28;20171;-73
2023/02/24 04:41:50;;;;;;;0.10;0.10;;;7.40;89.90;;;;;;5047941;28;20187;-73
2023/02/24 04:44:17;;;;;;;0.27;0.27;;;7.40;89.80;;;;;;5049657;28;20221;-74
2023/02/24 04:46:44;;;;;;;0.30;0.30;;;7.50;89.80;;;;;;5052609;28;20551;-74
2023/02/24 04:49:11;;;;;;;0.30;0.20;;;7.50;89.70;;;;;;5042380;28;20740;-73
2023/02/24 04:51:41;;;;;;;0.30;0.30;;;7.50;89.70;;;;;;5037193;28;20183;-73
2023/02/24 04:54:08;;;;;;;0.17;0.17;;;7.50;89.60;;;;;;5034894;28;20207;-73
2023/02/24 04:56:35;;;;;;;1.90;0.20;;;7.50;89.30;;;;;;5036505;28;20176;-73
2023/02/24 04:59:01;;;;;;;0.20;0.20;;;;;;;;;;5047943;28;20183;-73
2023/02/24 05:01:28;;;;;;;0.20;0.20;;;;;;;;;;5051669;28;20191;-74
2023/02/24 05:03:54;;;;;;;0.60;0.33;;;;;;;;;;5052469;28;20224;-74
2023/02/24 05:06:20;;;;;;;0.30;0.30;;;;;;;;;;5045000;28;20859;-76
2023/02/24 05:08:46;;;;;;;0.33;0.33;;;;;;;;;;5049928;28;20195;-75
2023/02/24 05:11:14;;;;;;;1.87;0.67;;;7.50;89.10;;;;;;5052024;28;20187;-75
2023/02/24 05:13:44;;;;;;;1.03;0.40;;;7.60;88.90;;;;;;5051637;28;20214;-75
2023/02/24 05:16:11;;;;;;;0.50;0.43;;;7.60;88.80;;;;;;5045476;28;20673;-75
2023/02/24 05:18:38;;;;;;;0.60;0.60;;;7.60;88.50;;;;;;5046515;28;20914;-75
2023/02/24 05:23:53;;;;;;;0.47;0.40;;;7.60;88.70;;;;;;5053976;28;20194;-76
2023/02/24 05:26:24;;;;;;;0.10;0.10;;;7.60;88.90;;;;;;5048293;28;20179;-74
2023/02/24 05:28:53;;;;;;;0.67;0.50;;;;;;;;;;5048446;28;20303;-73
2023/02/24 05:31:24;;;;;;;0.50;0.50;;;7.60;89.30;;;;;;5047807;28;20653;-74
2023/02/24 05:33:58;;;;;;;0.87;0.40;;;7.60;89.30;;;;;;5048707;28;20682;-74
2023/02/24 05:36:28;;;;;;;3.07;0.50;;;7.60;89.10;;;;;;5043889;28;20298;-72
2023/02/24 05:38:58;;;;;;;0.40;0.30;;;7.60;89.20;;;;;;5045054;28;20188;-72
2023/02/24 05:41:34;;;;;;;0.40;0.40;;;7.60;89.30;;;;;;5050841;28;20183;-72
2023/02/24 05:44:03;;;;;;;0.27;0.27;;;7.60;89.10;;;;;;5048012;28;20191;-73
2023/02/24 05:46:35;;;;;;;0.47;0.40;;;7.60;89.20;;;;;;5045477;28;20175;-73
2023/02/24 05:49:07;;;;;;;1.10;0.40;;;7.60;89.00;;;;;;5051987;28;20267;-73
2023/02/24 05:51:34;;;;;;;0.20;0.20;;;7.60;89.20;;;;;;5050052;28;20281;-74
2023/02/24 05:54:05;;;;;;;0.20;0.20;;;7.60;89.10;;;;;;5046736;28;20235;-74
2023/02/24 05:56:33;;;;;;;0.20;0.20;;;7.50;89.60;;;;;;5049904;28;20191;-75
2023/02/24 05:59:03;;;;;;;2.10;0.27;;;7.50;89.90;;;;;;5047398;28;20180;-76
2023/02/24 06:01:31;;;;;;;0.40;0.40;;;7.50;90.00;;;;;;5044076;28;20201;-75
2023/02/24 06:04:04;;;;;;;0.50;0.40;;;7.50;90.10;;;;;;5051319;28;20205;-75
2023/02/24 06:06:38;;;;;;;0.93;0.40;;;7.50;90.20;;;;;;5044856;28;20178;-72
2023/02/24 06:09:12;;;;;;;0.20;0.20;;;7.50;90.10;;;;;;5047894;28;20179;-72
2023/02/24 06:11:39;;;;;;;0.60;0.50;;;7.50;90.20;;;;;;5043367;28;20179;-73
2023/02/24 06:14:06;;;;;;;0.90;0.60;;;7.50;90.30;;;;;;5042690;28;20325;-73
2023/02/24 06:16:36;;;;;;;0.50;0.50;;;7.50;90.10;;;;;;5044276;28;20206;-72
2023/02/24 06:19:04;;;;;;;0.47;0.40;;;7.60;90.00;;;;;;5043486;28;20746;-72
2023/02/24 06:21:29;;;;;;;0.30;0.30;;;7.60;90.10;;;;;;5050093;28;20480;-72
2023/02/24 06:23:57;;;;;;;0.30;0.30;;;7.70;90.10;;;;;;5048440;28;20187;-72
2023/02/24 06:26:28;;;;;;;0.73;0.67;;;7.70;90.00;;;;;;5048141;28;20228;-72
2023/02/24 06:28:56;;;;;;;0.57;0.30;;;7.70;90.00;;;;;;5041712;28;20282;-72
2023/02/24 06:31:22;;;;;;;0.43;0.43;;;7.80;89.90;;;;;;5044087;28;20749;-73
2023/02/24 06:33:48;;;;;;;1.67;0.53;;;;;;;;;;5047137;28;20215;-73
2023/02/24 06:36:14;;;;;;;0.30;0.30;;;7.80;89.80;;;;;;5044984;28;20274;-74
2023/02/24 06:38:40;;;;;;;1.07;0.53;;;7.80;89.80;;;;;;5050599;28;20254;-72
2023/02/24 06:41:09;;;;;;;0.23;0.23;;;7.90;89.90;;;;;;5046271;28;20176;-73
2023/02/24 06:43:44;;;;;;;0.40;0.30;;;7.90;89.60;;;;;;5050557;28;20196;-73
2023/02/24 06:46:12;;;;;;;0.20;0.20;;;7.90;89.80;;;;;;5045647;28;20187;-73
2023/02/24 06:48:38;;;;;;;0.40;0.40;;;;;;;;;;5048023;28;20187;-74
2023/02/24 06:51:09;;;;;;;0.53;0.47;;;8.00;89.50;;;;;;5047642;28;20175;-74
2023/02/24 06:53:35;;;;;;;0.83;0.50;;;8.00;89.00;;;;;;5049103;28;20204;-72
2023/02/24 06:56:13;;;;;;;1.50;0.30;;;8.00;88.80;;;;;;5050351;28;20188;-74
2023/02/24 06:58:43;;;;;;;0.63;0.40;;;7.90;89.00;;;;;;5053916;28;20178;-72
2023/02/24 07:01:12;;;;;;;1.07;0.60;;;8.00;89.10;;;;;;5050414;28;20192;-74
2023/02/24 07:03:38;;;;;;;1.80;0.23;;;8.00;89.10;;;;;;5050691;28;20191;-74
2023/02/24 07:06:28;;;;;;;2.37;0.50;;;7.90;89.30;;;;;;5048605;28;20244;-72
2023/02/24 07:08:56;;;;;;;0.40;0.40;;;8.00;89.30;;;;;;5052571;28;20278;-74
2023/02/24 07:11:22;;;;;;;0.20;0.20;;;8.00;89.40;;;;;;5055968;28;20187;-73
2023/02/24 07:13:48;;;;;;;0.27;0.27;;;8.00;89.20;;;;;;5050717;28;20215;-74
2023/02/24 07:16:19;;;;;;;0.20;0.20;;;8.10;89.20;;;;;;5047372;28;20183;-74
2023/02/24 07:18:49;;;;;;;0.50;0.50;;;8.20;89.10;;;;;;5049563;28;20677;-72
2023/02/24 07:21:16;;;;;;;0.63;0.60;;;8.20;88.80;;;;;;5047478;28;20241;-73
2023/02/24 07:23:44;;;;;;;0.63;0.27;;;8.30;88.60;;;;;;5048775;28;20677;-72
2023/02/24 07:26:15;;;;;;;1.37;0.43;;;8.40;88.50;;;;;;5050372;28;20181;-73
2023/02/24 07:28:43;;;;;;;0.67;0.33;;;8.50;87.90;;;;;;5044551;28;20269;-74
2023/02/24 07:31:12;;;;;;;0.33;0.30;;;8.60;87.70;;;;;;5050076;28;20182;-74
2023/02/24 07:33:38;;;;;;;0.53;0.53;;;8.60;87.10;;;;;;5051117;28;20220;-73
2023/02/24 07:36:09;;;;;;;1.77;0.73;;;8.70;86.40;;;;;;5054388;28;20222;-74
2023/02/24 07:38:36;;;;;;;0.43;0.43;;;8.60;86.60;;;;;;5049033;28;20241;-74
2023/02/24 07:41:05;;;;;;;0.47;0.47;;;8.60;87.00;;;;;;5052876;28;20180;-75
2023/02/24 07:43:32;;;;;;;0.40;0.40;;;8.60;87.00;;;;;;5042845;28;20302;-72
2023/02/24 07:46:10;;;;;;;0.40;0.40;;;8.70;87.00;;;;;;5049841;28;20190;-73
2023/02/24 07:48:36;;;;;;;0.40;0.40;;;;;;;;;;5046054;28;20205;-74
2023/02/24 07:51:10;;;;;;;0.50;0.23;;;8.70;86.70;;;;;;5052333;28;20261;-74
2023/02/24 07:53:39;;;;;;;2.10;0.63;;;8.70;86.50;;;;;;5054883;28;20210;-74
2023/02/24 07:56:13;;;;;;;0.33;0.33;;;8.70;86.50;;;;;;5048816;28;20176;-74
2023/02/24 07:58:41;;;;;;;0.50;0.50;;;8.70;85.90;;;;;;5047526;28;20199;-72
2023/02/24 08:01:07;;;;;;;1.70;0.37;;;8.70;86.20;;;;;;5050350;28;20274;-73
2023/02/24 08:03:40;;;;;;;0.50;0.50;;;8.70;86.40;;;;;;5050954;28;20199;-74
2023/02/24 08:06:14;;;;;;;0.57;0.57;;;8.70;86.50;;;;;;5052003;28;20207;-72
2023/02/24 08:09:15;;;;;;;1.87;0.50;;;8.80;86.40;;;;;;5050043;28;20256;-74
2023/02/24 08:11:44;;;;;;;0.40;0.40;;;8.80;86.20;;;;;;5049659;28;20183;-74
2023/02/24 08:14:13;;;;;;;0.50;0.40;;;8.80;86.50;;;;;;5054516;28;20234;-74
2023/02/24 08:16:44;;;;;;;0.50;0.50;;;8.90;86.20;;;;;;5047217;28;20271;-73
2023/02/24 08:19:13;;;;;;;1.43;0.40;;;9.00;86.30;;;;;;5046621;28;20179;-73
2023/02/24 08:21:46;;;;;;;0.50;0.50;;;9.10;86.00;;;;;;5047969;28;20260;-73
2023/02/24 08:24:16;;;;;;;0.80;0.40;;;9.30;85.50;;;;;;5053785;28;20344;-73
2023/02/24 08:27:02;;;;;;;1.33;0.50;;;9.40;85.40;;;;;;5053652;28;20174;-74
2023/02/24 08:29:30;;;;;;;0.90;0.87;;;;;;;;;;5053376;28;20791;-74
2023/02/24 08:31:57;;;;;;;0.97;0.53;;;9.70;84.60;;;;;;5050773;28;20180;-74
2023/02/24 08:34:26;;;;;;;5.20;1.10;;;;;;;;;;5048521;28;20178;-74
2023/02/24 08:36:56;;;;;;;3.13;0.87;;;;;;;;;;5053263;28;20171;-75
2023/02/24 08:39:22;;;;;;;0.70;0.70;;;10.10;83.00;;;;;;5050560;28;20202;-73
2023/02/24 08:41:50;;;;;;;0.60;0.60;;;10.20;82.60;;;;;;5051862;28;20802;-74
2023/02/24 08:44:20;;;;;;;0.80;0.80;;;10.30;82.40;;;;;;5052445;28;20179;-74
2023/02/24 08:46:51;;;;;;;2.38;0.57;;;10.40;81.70;;;;;;5051556;28;21155;-74
2023/02/24 08:49:17;;;;;;;0.50;0.50;;;10.50;81.40;;;;;;5054640;28;20179;-74
2023/02/24 08:51:46;;;;;;;1.97;0.70;;;10.60;81.00;;;;;;5053908;28;20180;-74
2023/02/24 08:54:15;;;;;;;0.40;0.30;;;10.70;80.60;;;;;;5052954;28;20658;-72
2023/02/24 08:56:54;;;;;;;0.60;0.43;;;10.80;80.50;;;;;;5047858;28;20261;-72
2023/02/24 08:59:27;;;;;;;1.20;0.43;;;10.90;79.90;;;;;;5047808;28;20172;-75
2023/02/24 09:04:44;;;;;;;0.80;0.80;;;11.10;79.30;;;;;;5051051;28;20195;-74
2023/02/24 09:07:25;;;;;;;0.80;0.43;;;11.20;79.00;;;;;;5046403;28;20267;-74
2023/02/24 09:09:55;;;;;;;0.53;0.53;;;11.30;78.40;;;;;;5043759;28;20179;-73
2023/02/24 09:12:27;;;;;;;0.68;0.57;;;11.40;78.50;;;;;;5050657;28;20600;-73
2023/02/24 09:15:00;;;;;;;0.98;0.80;;;11.50;78.10;;;;;;5045949;28;20187;-73
2023/02/24 09:17:49;;;;;;;0.63;0.38;;;11.60;77.80;;;;;;5050758;28;20184;-73
2023/02/24 09:20:55;;;;;;;1.00;0.70;;;11.70;77.40;;;;;;5050993;28;20249;-74
2023/02/24 09:23:08;;;;;;;0.40;0.38;;;;;;;;;;5051387;28;20195;-73
2023/02/24 09:25:42;;;;;;;1.58;0.47;;;11.80;76.60;;;;;;5044002;28;20574;-74
2023/02/24 09:28:16;;;;;;;0.60;0.47;;;11.80;77.30;;;;;;5050195;28;20170;-73
2023/02/24 09:30:52;;;;;;;0.90;0.60;;;11.80;76.40;;;;;;5048194;28;20232;-74
2023/02/24 09:33:38;;;;;;;0.50;0.50;;;11.90;76.30;;;;;;5044989;28;20210;-74
2023/02/24 09:36:08;;;;;;;1.13;0.80;;;12.10;76.60;;;;;;5053332;28;20393;-74
2023/02/24 09:44:24;;;;;;;1.88;0.85;;;;;;;;;;5045786;28;20202;-74
2023/02/24 09:47:38;;;;;;;1.60;0.75;;;14.20;73.80;;;;;;5046898;28;20187;-74
2023/02/24 09:50:16;;;;;;;7.93;0.77;;;14.70;72.00;;;;;;5048842;28;20209;-73
2023/02/24 09:52:42;;;;;;;0.77;0.77;;;15.10;70.50;;;;;;5048136;28;20206;-73
2023/02/24 09:55:26;;;;;;;4.75;1.13;;;;;;;;;;5049774;28;20194;-74
2023/02/24 10:01:21;;;;;;;1.08;1.00;;;15.10;68.00;;;;;;5049828;28;20202;-73
2023/02/24 10:04:03;;;;;;;3.85;1.33;;;14.90;68.60;;;;;;5045499;28;20902;-73
2023/02/24 10:06:41;;;;;;;4.82;2.05;;;14.70;68.80;;;;;;5043811;28;20546;-74
2023/02/24 10:09:20;;;;;;;5.47;2.20;;;14.70;69.10;;;;;;5050181;28;20729;-74
2023/02/24 10:12:18;;;;;;;1.35;1.27;;;14.60;69.30;;;;;;5045861;28;20182;-74
2023/02/24 10:15:17;;;;;;;7.53;2.38;;;14.50;69.80;;;;;;5050318;28;20290;-74
2023/02/24 10:17:58;;;;;;;7.30;2.42;;;14.70;69.70;;;;;;5048129;28;20591;-74
2023/02/24 10:20:38;;;;;;;8.20;2.72;;;14.70;69.80;;;;;;5055783;28;20655;-73
2023/02/24 10:23:15;;;;;;;2.60;1.65;;;14.60;69.60;;;;;;5055303;28;20217;-74
2023/02/24 10:25:55;;;;;;;3.92;2.00;;;14.70;70.20;;;;;;5049228;28;20240;-73
2023/02/24 10:28:23;;;;;;;5.80;2.60;;;14.90;69.80;;;;;;5052140;28;20175;-74
2023/02/24 10:31:02;;;;;;;6.78;2.47;;;15.00;69.30;;;;;;5046590;28;20191;-73
2023/02/24 10:33:44;;;;;;;5.55;2.03;;;15.40;68.70;;;;;;5051644;28;20219;-73
2023/02/24 10:36:21;;;;;;;11.13;3.22;;;;;;;;;;5049980;28;20230;-73
2023/02/24 10:38:49;;;;;;;14.18;3.40;;;;;;;;;;5049492;28;20191;-74
2023/02/24 10:41:16;;;;;;;13.10;3.47;;;18.60;64.20;;;;;;5052609;28;20210;-74
2023/02/24 10:43:55;;;;;;;1.77;1.67;;;19.70;61.90;;;;;;5051459;28;20238;-74
2023/02/24 10:46:32;;;;;;;3.25;1.73;;;19.80;61.80;;;;;;5044546;28;20209;-72
2023/02/24 10:48:59;;;;;;;2.08;1.98;;;21.00;57.50;;;;;;5052527;28;20213;-75
2023/02/24 10:51:47;;;;;;;3.50;1.40;;;21.50;59.10;;;;;;5049144;28;20188;-74
2023/02/24 10:57:17;;;;;;;2.72;2.00;;;23.20;56.00;;;;;;5048476;28;20183;-72
2023/02/24 11:05:42;;;;;;;13.73;4.43;;;25.60;52.60;;;;;;5047420;28;20257;-72
2023/02/24 11:08:08;;;;;;;7.80;3.47;;;;;;;;;;5053932;28;20183;-72
2023/02/24 11:10:57;;;;;;;10.25;3.55;;;26.40;50.20;;;;;;5050402;28;20183;-71
2023/02/24 11:18:54;;;;;;;3.55;3.13;;;27.10;50.00;;;;;;5049583;28;20252;-71
2023/02/24 11:21:25;;;;;;;3.72;2.80;;;27.30;48.20;;;;;;5043158;28;20187;-71
2023/02/24 11:23:55;;;;;;;2.95;2.75;;;27.10;49.00;;;;;;5047214;28;20971;-72
2023/02/24 11:26:31;;;;;;;3.58;3.25;;;27.40;49.00;;;;;;5052698;28;20717;-72
2023/02/24 11:29:25;;;;;;;3.58;3.05;;;27.70;48.30;;;;;;5052525;28;20684;-72
2023/02/24 11:31:51;;;;;;;5.53;3.10;;;28.20;47.80;;;;;;5049527;28;20896;-76
2023/02/24 11:34:27;;;;;;;3.30;3.05;;;28.50;47.50;;;;;;5047652;28;20214;-77
2023/02/24 11:37:19;;;;;;;3.75;3.38;;;28.40;45.40;;;;;;5044732;28;20194;-73
2023/02/24 11:40:02;;;;;;;4.15;2.85;;;27.20;46.70;;;;;;5052274;28;20195;-74
2023/02/24 11:42:51;;;;;;;3.55;3.25;;;26.70;49.20;;;;;;5056492;28;20245;-74
2023/02/24 11:45:48;;;;;;;3.10;2.90;;;26.90;49.10;;;;;;5041563;28;20330;-75
2023/02/24 11:48:37;;;;;;;3.28;2.78;;;27.60;48.50;;;;;;5022835;28;20806;-75
2023/02/24 11:51:10;;;;;;;2.72;2.50;;;27.90;46.80;;;;;;5022486;28;20185;-76
2023/02/24 11:53:48;;;;;;;3.03;2.58;;;27.90;47.40;;;;;;5023052;28;21031;-74
2023/02/24 11:56:19;;;;;;;3.95;3.67;;;27.90;47.90;;;;;;5024912;28;21208;-75
2023/02/24 11:59:00;;;;;;;2.70;2.50;;;27.90;47.50;;;;;;5010693;28;20288;-75
2023/02/24 12:01:45;;;;;;;3.35;3.08;;;27.80;47.20;;;;;;5020081;28;20188;-75
2023/02/24 12:04:20;;;;;;;3.88;3.45;;;27.70;47.60;;;;;;5020557;28;20194;-74
2023/02/24 12:06:58;;;;;;;3.65;3.35;;;27.30;47.50;;;;;;5005991;28;20315;-74
2023/02/24 12:09:29;;;;;;;2.90;2.72;;;26.80;48.40;;;;;;5020522;28;20192;-77
2023/02/24 12:12:22;;;;;;;3.60;3.30;;;26.60;48.60;;;;;;5004747;28;20222;-77
2023/02/24 12:14:59;;;;;;;3.88;3.10;;;26.50;48.60;;;;;;5030072;28;20261;-74
2023/02/24 12:17:46;;;;;;;3.67;3.38;;;26.00;47.90;;;;;;5021179;28;20206;-74
2023/02/24 12:20:22;;;;;;;5.57;3.53;;;25.60;48.70;;;;;;5028641;28;20188;-74
2023/02/24 12:22:54;;;;;;;3.85;3.53;;;25.00;50.20;;;;;;5010420;28;20233;-74
2023/02/24 12:25:28;;;;;;;4.00;3.58;;;24.20;51.50;;;;;;5036443;28;20251;-73
2023/02/24 12:28:17;;;;;;;3.85;3.55;;;23.70;52.30;;;;;;5049481;28;20524;-73
2023/02/24 12:31:20;;;;;;;5.72;3.45;;;23.30;52.20;;;;;;5044687;28;20269;-73
2023/02/24 12:34:01;;;;;;;6.78;3.20;;;22.80;52.70;;;;;;5049460;28;20716;-73
2023/02/24 12:36:59;;;;;;;5.40;3.22;;;22.20;53.40;;;;;;5048647;28;20309;-73
2023/02/24 12:39:43;;;;;;;4.15;3.42;;;21.70;54.20;;;;;;5017571;28;20207;-73
2023/02/24 12:42:09;;;;;;;3.90;3.50;;;21.40;54.70;;;;;;4998259;28;20972;-74
2023/02/24 12:44:41;;;;;;;5.47;3.70;;;21.10;55.40;;;;;;5012801;28;20238;-73
2023/02/24 12:47:36;;;;;;;3.83;3.00;;;20.50;56.20;;;;;;5013196;28;20330;-74
2023/02/24 12:50:05;;;;;;;8.15;2.95;;;19.90;57.20;;;;;;4930614;29;20229;-73
2023/02/24 12:53:05;;;;;;;4.03;3.22;;;19.20;59.20;;;;;;4932036;29;20220;-73
2023/02/24 12:55:43;;;;;;;2.88;2.50;;;18.60;60.80;;;;;;4932478;29;20471;-74
2023/02/24 12:58:19;;;;;;;4.25;3.30;;;18.20;62.70;;;;;;4927499;29;20583;-73
2023/02/24 13:01:11;;;;;;;3.88;3.53;;;17.40;64.80;;;;;;4929238;29;20587;-73
2023/02/24 13:03:52;;;;;;;4.30;3.90;;;17.10;65.40;;;;;;4930910;29;20277;-74
2023/02/24 13:06:43;;;;;;;5.88;3.53;;;17.00;66.70;;;;;;4931436;29;20207;-73
2023/02/24 13:09:11;;;;;;;3.90;3.03;;;17.20;67.10;;;;;;4932220;29;20207;-74
2023/02/24 13:11:58;;;;;;;6.18;2.63;;;17.70;66.20;;;;;;4914948;29;21090;-74
2023/02/24 13:14:30;;;;;;;2.97;2.70;;;18.10;64.80;;;;;;4934841;28;20241;-74
2023/02/24 13:17:10;;;;;;;3.72;3.05;;;18.60;63.90;;;;;;4942923;28;20194;-74
2023/02/24 13:19:42;;;;;;;3.25;2.63;;;18.70;63.10;;;;;;4942129;28;20770;-74
2023/02/24 13:22:10;;;;;;;4.20;2.85;;;18.40;64.30;;;;;;4957653;28;20200;-74
2023/02/24 13:24:41;;;;;;;10.73;3.22;;;18.10;64.30;;;;;;4956253;28;20204;-74
2023/02/24 13:27:16;;;;;;;2.92;2.45;;;17.70;64.80;;;;;;5022287;28;20191;-74
2023/02/24 13:29:53;;;;;;;3.25;2.95;;;17.50;65.10;;;;;;5046931;28;20183;-73
2023/02/24 13:32:35;;;;;;;3.42;2.90;;;17.30;65.60;;;;;;5047356;28;20183;-73
2023/02/24 13:35:04;;;;;;;5.30;3.03;;;16.90;67.70;;;;;;5044478;28;20290;-73
2023/02/24 13:37:38;;;;;;;6.50;2.55;;;16.50;68.60;;;;;;5037755;28;20617;-74
2023/02/24 13:40:22;;;;;;;7.15;3.38;;;16.40;69.30;;;;;;5045057;28;20193;-74
2023/02/24 13:42:56;;;;;;;3.55;3.25;;;16.20;69.60;;;;;;5037399;28;20179;-73
2023/02/24 13:45:52;;;;;;;6.60;3.30;;;16.00;70.10;;;;;;5038590;28;20187;-77
2023/02/24 13:48:58;;;;;;;2.42;2.22;;;15.60;72.30;;;;;;5044541;28;20619;-73
2023/02/24 13:51:26;;;;;;;6.20;2.95;;;15.30;72.70;;;;;;5045489;28;20176;-74
2023/02/24 13:53:59;;;;;;;2.83;2.25;;;15.10;73.20;;;;;;5044627;28;20257;-74
2023/02/24 13:56:47;;;;;;;6.05;3.45;;;15.00;74.30;;;;;;5042168;28;20191;-74
2023/02/24 13:59:15;;;;;;;2.35;2.13;;;14.90;74.40;;;;;;5045499;28;20660;-74
2023/02/24 14:01:50;;;;;;;3.30;2.30;;;14.80;74.70;;;;;;5046380;28;20206;-73
2023/02/24 14:04:50;;;;;;;6.20;2.60;;;14.80;74.80;;;;;;5050499;28;20182;-74
2023/02/24 14:07:24;;;;;;;3.63;3.03;;;14.70;75.10;;;;;;5034750;28;22120;-74
2023/02/24 14:10:04;;;;;;;5.43;2.72;;;14.50;76.20;;;;;;5043331;28;20179;-74
2023/02/24 14:12:33;;;;;;;2.92;2.67;;;14.40;76.10;;;;;;5045417;28;20290;-73